Time;durP1;ratioP1;P1;durP2;ratioP2;P2;SDS_P1;SDS_P2;PMS_P1;PMS_P2;Temp;Humidity;BMP_temperature;BMP_pressure;BME280_temperature;BME280_humidity;BME280_pressure;Samples;Min_cycle;Max_cycle;Signal;HPM_P1;HPM_P2
2022/04/02 00:02:02;;;;;;;4.85;2.25;;;4.30;62.80;;;;;;5007406;28;20049;-62
2022/04/02 00:04:28;;;;;;;4.18;2.10;;;4.30;63.00;;;;;;5007871;28;20113;-62
2022/04/02 00:06:54;;;;;;;2.08;1.80;;;4.30;63.00;;;;;;5010264;28;20101;-62
2022/04/02 00:09:20;;;;;;;3.08;2.17;;;4.30;63.00;;;;;;5011095;28;20668;-62
2022/04/02 00:11:46;;;;;;;6.43;2.40;;;4.30;62.90;;;;;;5010657;28;20022;-62
2022/04/02 00:14:12;;;;;;;3.17;2.00;;;4.30;63.10;;;;;;5010163;28;20040;-62
2022/04/02 00:16:38;;;;;;;2.88;1.95;;;4.30;63.00;;;;;;5009761;28;20125;-62
2022/04/02 00:19:03;;;;;;;4.13;2.40;;;4.30;63.20;;;;;;5011070;28;20117;-62
2022/04/02 00:21:29;;;;;;;3.22;2.00;;;4.30;63.20;;;;;;5010146;28;20105;-62
2022/04/02 00:23:55;;;;;;;3.22;1.80;;;4.30;63.20;;;;;;5010384;28;20061;-61
2022/04/02 00:26:20;;;;;;;2.72;1.88;;;4.30;63.30;;;;;;5010472;28;20026;-62
2022/04/02 00:28:48;;;;;;;2.97;2.17;;;4.30;63.30;;;;;;5009825;28;20509;-62
2022/04/02 00:31:14;;;;;;;2.45;1.95;;;4.30;63.50;;;;;;5006577;28;20100;-62
2022/04/02 00:33:43;;;;;;;4.07;2.17;;;4.30;63.20;;;;;;5009840;28;20500;-59
2022/04/02 00:36:10;;;;;;;2.80;2.00;;;4.30;63.10;;;;;;5010815;28;20109;-63
2022/04/02 00:38:36;;;;;;;2.58;2.10;;;4.20;62.90;;;;;;5008378;28;20037;-62
2022/04/02 00:41:02;;;;;;;2.97;2.10;;;4.20;62.80;;;;;;5009669;28;20033;-59
2022/04/02 00:43:32;;;;;;;3.63;2.47;;;4.20;62.90;;;;;;5009195;28;20041;-59
2022/04/02 00:46:09;;;;;;;2.92;2.20;;;4.20;62.90;;;;;;5010077;28;20052;-59
2022/04/02 00:48:35;;;;;;;3.45;2.17;;;4.20;63.10;;;;;;5007371;28;20033;-59
2022/04/02 00:51:04;;;;;;;3.35;1.90;;;4.20;63.10;;;;;;5008617;28;20398;-62
2022/04/02 00:53:32;;;;;;;4.15;2.53;;;4.10;63.00;;;;;;5008151;28;20105;-59
2022/04/02 00:56:02;;;;;;;3.25;2.35;;;4.20;63.40;;;;;;5011543;28;20021;-59
2022/04/02 00:58:28;;;;;;;4.65;2.08;;;4.10;63.40;;;;;;5009436;28;20235;-59
2022/04/02 01:00:54;;;;;;;2.80;1.90;;;4.20;63.40;;;;;;5009803;28;20046;-59
2022/04/02 01:03:21;;;;;;;4.10;2.10;;;4.10;63.20;;;;;;5010149;28;20045;-59
2022/04/02 01:05:48;;;;;;;3.35;2.20;;;4.10;63.10;;;;;;5009963;28;20124;-62
2022/04/02 01:08:14;;;;;;;6.00;2.28;;;4.10;63.10;;;;;;5007515;28;20049;-62
2022/04/02 01:10:40;;;;;;;6.25;2.63;;;4.10;63.00;;;;;;5007711;28;20432;-62
2022/04/02 01:13:07;;;;;;;2.80;1.92;;;4.10;63.20;;;;;;5010202;28;20120;-58
2022/04/02 01:15:33;;;;;;;5.13;1.90;;;4.10;63.30;;;;;;5008657;28;20117;-59
2022/04/02 01:17:58;;;;;;;3.33;2.15;;;4.10;63.20;;;;;;5009549;28;20122;-62
2022/04/02 01:20:27;;;;;;;5.57;2.08;;;4.10;63.20;;;;;;5008659;28;20034;-62
2022/04/02 01:22:53;;;;;;;3.58;2.10;;;4.10;63.20;;;;;;5009247;28;20056;-62
2022/04/02 01:25:19;;;;;;;4.63;2.20;;;4.10;63.00;;;;;;5008735;28;20030;-60
2022/04/02 01:27:46;;;;;;;2.75;2.00;;;4.10;63.00;;;;;;5009560;28;20089;-59
2022/04/02 01:30:14;;;;;;;4.10;2.17;;;4.10;63.00;;;;;;5008804;28;20416;-62
2022/04/02 01:32:41;;;;;;;3.72;2.08;;;4.00;63.00;;;;;;5008526;28;20497;-58
2022/04/02 01:35:08;;;;;;;2.90;1.80;;;4.00;63.00;;;;;;5009360;28;20030;-58
2022/04/02 01:37:36;;;;;;;3.30;2.13;;;3.90;63.10;;;;;;5009026;28;20116;-58
2022/04/02 01:40:04;;;;;;;4.82;2.38;;;4.00;63.10;;;;;;5007905;28;20087;-57
2022/04/02 01:42:30;;;;;;;3.08;1.73;;;4.00;63.10;;;;;;5008280;28;20594;-58
2022/04/02 01:44:56;;;;;;;3.83;2.10;;;4.00;63.10;;;;;;5008491;28;20380;-63
2022/04/02 01:47:22;;;;;;;3.22;1.95;;;4.00;63.10;;;;;;5008661;28;20471;-62
2022/04/02 01:49:48;;;;;;;2.63;2.25;;;4.00;63.10;;;;;;5008974;28;20109;-62
2022/04/02 01:52:16;;;;;;;4.32;2.03;;;4.00;63.10;;;;;;5007872;28;20030;-62
2022/04/02 01:54:42;;;;;;;2.67;1.77;;;4.00;63.10;;;;;;5005257;28;20080;-62
2022/04/02 01:57:09;;;;;;;2.90;2.05;;;4.00;63.30;;;;;;5006815;28;20116;-61
2022/04/02 01:59:34;;;;;;;3.45;2.17;;;4.00;63.20;;;;;;5009260;28;20034;-62
2022/04/02 02:02:00;;;;;;;2.65;2.10;;;4.00;63.30;;;;;;5010202;28;20068;-62
2022/04/02 02:04:27;;;;;;;3.97;2.10;;;4.00;63.40;;;;;;5006833;28;20065;-61
2022/04/02 02:06:53;;;;;;;2.78;1.92;;;4.00;63.40;;;;;;5008551;28;20465;-62
2022/04/02 02:09:19;;;;;;;3.65;2.08;;;3.90;63.30;;;;;;5007808;28;20037;-58
2022/04/02 02:11:44;;;;;;;4.80;2.00;;;3.90;63.30;;;;;;5006511;28;20508;-58
2022/04/02 02:14:10;;;;;;;3.22;1.95;;;3.90;63.30;;;;;;5003003;28;20042;-61
2022/04/02 02:16:36;;;;;;;3.13;2.50;;;4.00;63.40;;;;;;5003608;28;20538;-61
2022/04/02 02:19:01;;;;;;;2.35;1.83;;;3.90;63.30;;;;;;5007121;28;20029;-62
2022/04/02 02:21:27;;;;;;;3.88;1.73;;;3.90;63.20;;;;;;5006748;28;20038;-58
2022/04/02 02:23:53;;;;;;;2.40;1.77;;;3.90;63.20;;;;;;5007644;28;20030;-58
2022/04/02 02:26:19;;;;;;;2.90;2.20;;;4.00;63.30;;;;;;5003854;28;20061;-62
2022/04/02 02:28:45;;;;;;;2.88;1.90;;;3.90;63.40;;;;;;5007499;28;20026;-58
2022/04/02 02:31:11;;;;;;;2.40;1.77;;;3.90;63.50;;;;;;5006492;28;20389;-58
2022/04/02 02:36:21;;;;;;;3.97;2.53;;;4.00;63.70;;;;;;5007767;28;20100;-59
2022/04/02 02:38:46;;;;;;;2.42;1.88;;;4.00;64.00;;;;;;5006003;28;20041;-58
2022/04/02 02:41:12;;;;;;;3.80;1.92;;;4.00;63.90;;;;;;5004737;28;20104;-59
2022/04/02 02:43:38;;;;;;;6.28;2.08;;;3.90;64.00;;;;;;5006845;28;20061;-58
2022/04/02 02:46:05;;;;;;;4.38;1.90;;;3.90;63.80;;;;;;5006761;28;20226;-60
2022/04/02 02:48:31;;;;;;;2.80;2.08;;;3.90;63.90;;;;;;5006756;28;20339;-61
2022/04/02 02:50:57;;;;;;;3.53;2.22;;;3.90;63.90;;;;;;5008375;28;20481;-59
2022/04/02 02:53:23;;;;;;;2.60;1.83;;;3.90;63.90;;;;;;5006915;28;20080;-58
2022/04/02 02:55:49;;;;;;;3.00;1.90;;;3.90;64.00;;;;;;5006731;28;20437;-59
2022/04/02 02:58:16;;;;;;;3.17;1.70;;;3.90;64.00;;;;;;5006092;28;20030;-62
2022/04/02 03:00:46;;;;;;;2.42;2.00;;;3.90;64.10;;;;;;5005392;28;20096;-58
2022/04/02 03:03:12;;;;;;;3.20;2.00;;;3.80;64.10;;;;;;5008148;28;20025;-58
2022/04/02 03:05:37;;;;;;;3.90;2.13;;;3.80;64.10;;;;;;5006165;28;20038;-59
2022/04/02 03:08:03;;;;;;;2.78;2.05;;;3.80;64.10;;;;;;5010302;28;20030;-59
2022/04/02 03:10:29;;;;;;;5.40;2.35;;;3.90;64.30;;;;;;5006507;28;20034;-59
2022/04/02 03:12:59;;;;;;;3.42;1.90;;;3.80;64.20;;;;;;5039105;28;20653;-60
2022/04/02 03:15:25;;;;;;;4.00;2.22;;;3.80;64.10;;;;;;5006937;28;20053;-59
2022/04/02 03:17:53;;;;;;;4.38;1.98;;;3.80;64.20;;;;;;5007295;28;20404;-59
2022/04/02 03:20:21;;;;;;;3.72;2.10;;;3.80;64.20;;;;;;5007308;28;20036;-59
2022/04/02 03:22:49;;;;;;;2.80;2.15;;;3.80;64.30;;;;;;5007588;28;20030;-60
2022/04/02 03:25:18;;;;;;;2.80;2.00;;;3.80;64.90;;;;;;5007366;28;20045;-59
2022/04/02 03:27:45;;;;;;;3.15;1.90;;;3.80;64.40;;;;;;5006562;28;20100;-60
2022/04/02 03:30:12;;;;;;;3.25;2.08;;;3.80;64.30;;;;;;5007197;28;20038;-59
2022/04/02 03:32:39;;;;;;;3.05;1.98;;;3.70;64.30;;;;;;5005671;28;20049;-58
2022/04/02 03:35:06;;;;;;;2.50;1.65;;;3.70;64.10;;;;;;5005762;28;20118;-59
2022/04/02 03:37:36;;;;;;;2.45;1.80;;;3.70;64.10;;;;;;5007167;28;20701;-58
2022/04/02 03:40:02;;;;;;;3.38;2.00;;;3.70;64.30;;;;;;5005607;28;20026;-59
2022/04/02 03:42:28;;;;;;;4.72;1.90;;;3.70;64.40;;;;;;5010356;28;20030;-59
2022/04/02 03:44:54;;;;;;;2.95;2.08;;;3.70;64.50;;;;;;5006930;28;20037;-62
2022/04/02 03:47:22;;;;;;;5.40;2.20;;;3.70;64.60;;;;;;5010735;28;20417;-58
2022/04/02 03:49:50;;;;;;;2.17;1.73;;;3.70;64.60;;;;;;5009548;28;20424;-59
2022/04/02 03:52:16;;;;;;;4.07;2.05;;;3.60;64.70;;;;;;5008946;28;20488;-58
2022/04/02 03:54:42;;;;;;;3.58;1.80;;;3.60;64.90;;;;;;5010350;28;20110;-58
2022/04/02 03:57:09;;;;;;;3.08;2.20;;;3.60;64.60;;;;;;5008505;28;20034;-62
2022/04/02 03:59:35;;;;;;;3.13;1.75;;;3.60;64.60;;;;;;5005597;28;20026;-62
2022/04/02 04:02:02;;;;;;;2.85;1.98;;;3.60;64.80;;;;;;5010712;28;20054;-59
2022/04/02 04:04:28;;;;;;;2.10;1.85;;;3.60;64.80;;;;;;5010311;28;20022;-59
2022/04/02 04:06:56;;;;;;;6.03;2.20;;;3.60;64.70;;;;;;5010530;28;20030;-59
2022/04/02 04:09:22;;;;;;;3.58;1.88;;;3.60;64.60;;;;;;5009849;28;20034;-59
2022/04/02 04:11:47;;;;;;;3.25;2.05;;;3.60;64.80;;;;;;5012017;28;20030;-58
2022/04/02 04:14:14;;;;;;;3.55;2.13;;;3.50;64.70;;;;;;5007437;28;20389;-58
2022/04/02 04:16:41;;;;;;;2.97;1.90;;;3.60;64.80;;;;;;5009180;28;20034;-61
2022/04/02 04:19:07;;;;;;;3.60;2.05;;;3.50;64.80;;;;;;5007846;28;20148;-62
2022/04/02 04:21:34;;;;;;;2.50;1.67;;;3.50;64.90;;;;;;5009822;28;20030;-62
2022/04/02 04:24:00;;;;;;;2.38;1.80;;;3.50;64.90;;;;;;5006893;28;20056;-59
2022/04/02 04:26:26;;;;;;;2.97;1.92;;;3.50;64.90;;;;;;5010041;28;20124;-62
2022/04/02 04:28:51;;;;;;;3.58;2.00;;;3.50;64.90;;;;;;5008570;28;20637;-62
2022/04/02 04:31:18;;;;;;;4.43;1.77;;;3.50;65.00;;;;;;5010586;28;20026;-62
2022/04/02 04:33:44;;;;;;;3.70;1.98;;;3.50;65.00;;;;;;5010559;28;20089;-62
2022/04/02 04:36:11;;;;;;;2.55;2.10;;;3.50;65.00;;;;;;5009704;28;20345;-62
2022/04/02 04:38:36;;;;;;;5.32;2.25;;;3.50;65.00;;;;;;5009590;28;20030;-62
2022/04/02 04:41:03;;;;;;;3.25;2.30;;;3.50;65.10;;;;;;5009983;28;20045;-59
2022/04/02 04:43:29;;;;;;;2.63;1.90;;;3.50;65.10;;;;;;5011051;28;20129;-59
2022/04/02 04:45:55;;;;;;;5.32;2.15;;;3.50;65.10;;;;;;5009573;28;20034;-59
2022/04/02 04:48:20;;;;;;;2.63;1.77;;;3.40;65.10;;;;;;5008326;28;20045;-59
2022/04/02 04:50:47;;;;;;;3.97;2.20;;;3.50;65.10;;;;;;5009656;28;20037;-59
2022/04/02 04:53:13;;;;;;;4.32;2.90;;;3.50;65.40;;;;;;5008424;28;20022;-59
2022/04/02 04:55:39;;;;;;;3.53;2.20;;;3.50;65.40;;;;;;5009662;28;20040;-59
2022/04/02 04:58:05;;;;;;;5.03;2.33;;;3.50;65.60;;;;;;5008641;28;20037;-59
2022/04/02 05:00:31;;;;;;;4.50;2.20;;;3.50;65.60;;;;;;5009245;28;20061;-62
2022/04/02 05:02:58;;;;;;;3.10;1.80;;;3.50;65.40;;;;;;5010607;28;20037;-59
2022/04/02 05:05:23;;;;;;;4.05;2.30;;;3.50;65.40;;;;;;5007572;28;20038;-62
2022/04/02 05:07:49;;;;;;;4.28;3.08;;;3.50;65.40;;;;;;5009935;28;20381;-62
2022/04/02 05:10:15;;;;;;;3.92;2.08;;;3.50;65.40;;;;;;5009454;28;20096;-62
2022/04/02 05:12:41;;;;;;;5.43;2.35;;;3.50;65.30;;;;;;5008772;28;20026;-62
2022/04/02 05:15:08;;;;;;;6.88;2.25;;;3.50;65.40;;;;;;5010201;28;20429;-62
2022/04/02 05:17:35;;;;;;;2.75;1.95;;;3.50;65.60;;;;;;5012946;28;20127;-59
2022/04/02 05:20:06;;;;;;;3.80;2.03;;;3.50;65.60;;;;;;5011366;28;20034;-59
2022/04/02 05:22:32;;;;;;;3.47;1.80;;;3.50;65.70;;;;;;5006455;28;20029;-58
2022/04/02 05:24:58;;;;;;;5.15;2.22;;;3.50;65.70;;;;;;5003447;28;20466;-59
2022/04/02 05:27:28;;;;;;;2.38;1.85;;;3.50;65.80;;;;;;5009722;28;20038;-58
2022/04/02 05:29:54;;;;;;;4.28;2.08;;;3.50;65.70;;;;;;5009371;28;20026;-59
2022/04/02 05:32:20;;;;;;;3.60;2.30;;;3.50;65.80;;;;;;5009311;28;20053;-59
2022/04/02 05:34:46;;;;;;;4.85;2.33;;;3.50;65.80;;;;;;5008808;28;20493;-59
2022/04/02 05:37:11;;;;;;;3.97;2.05;;;3.50;65.70;;;;;;5008018;28;20054;-59
2022/04/02 05:39:37;;;;;;;3.95;2.15;;;3.50;65.80;;;;;;5007511;28;20034;-59
2022/04/02 05:42:07;;;;;;;3.60;2.28;;;3.50;65.90;;;;;;5008925;28;20040;-62
2022/04/02 05:44:32;;;;;;;6.35;2.00;;;3.50;66.50;;;;;;5005480;28;20034;-63
2022/04/02 05:46:58;;;;;;;3.42;2.30;;;3.50;66.00;;;;;;5007369;28;20036;-62
2022/04/02 05:49:24;;;;;;;6.50;2.70;;;3.50;65.90;;;;;;5008476;28;20448;-62
2022/04/02 05:51:49;;;;;;;4.88;2.47;;;3.50;66.00;;;;;;5008985;28;20513;-62
2022/04/02 05:54:15;;;;;;;4.60;2.35;;;3.50;66.00;;;;;;5006324;28;20116;-62
2022/04/02 05:56:41;;;;;;;5.13;2.78;;;3.50;66.20;;;;;;5007710;28;20069;-62
2022/04/02 05:59:07;;;;;;;3.80;2.13;;;3.50;66.10;;;;;;5009377;28;20350;-62
2022/04/02 06:01:35;;;;;;;3.13;2.20;;;3.50;66.10;;;;;;5006539;28;20057;-60
2022/04/02 06:04:02;;;;;;;3.00;2.20;;;3.50;66.20;;;;;;5009188;28;20400;-62
2022/04/02 06:06:28;;;;;;;5.35;2.42;;;3.50;66.20;;;;;;5006474;28;20054;-62
2022/04/02 06:08:53;;;;;;;4.75;2.42;;;3.50;66.20;;;;;;5008868;28;20061;-62
2022/04/02 06:11:19;;;;;;;4.03;2.38;;;3.50;66.40;;;;;;5002195;28;20096;-62
2022/04/02 06:13:45;;;;;;;4.75;2.42;;;3.50;66.60;;;;;;5008635;28;20083;-62
2022/04/02 06:16:10;;;;;;;2.95;2.17;;;3.50;66.60;;;;;;5006049;28;20057;-62
2022/04/02 06:18:36;;;;;;;3.03;2.53;;;3.50;66.60;;;;;;5005220;28;20502;-62
2022/04/02 06:21:03;;;;;;;3.20;2.20;;;3.50;66.70;;;;;;4998220;28;20524;-62
2022/04/02 06:23:29;;;;;;;3.70;2.40;;;3.50;66.80;;;;;;5005585;28;20026;-62
2022/04/02 06:25:56;;;;;;;3.15;2.20;;;3.50;66.80;;;;;;5008164;28;20025;-63
2022/04/02 06:28:22;;;;;;;4.53;2.50;;;3.50;66.80;;;;;;5007546;28;20036;-62
2022/04/02 06:30:47;;;;;;;4.35;2.38;;;3.60;66.80;;;;;;5005526;28;20037;-59
2022/04/02 06:33:13;;;;;;;3.88;2.45;;;3.60;66.90;;;;;;5004861;28;20121;-62
2022/04/02 06:35:39;;;;;;;3.30;2.65;;;3.60;66.90;;;;;;5008648;28;20504;-63
2022/04/02 06:38:05;;;;;;;4.13;2.67;;;3.60;66.90;;;;;;5010550;28;20029;-59
2022/04/02 06:40:31;;;;;;;3.00;2.28;;;3.70;67.00;;;;;;5010042;28;20034;-59
2022/04/02 06:42:58;;;;;;;3.13;2.17;;;3.70;66.90;;;;;;5012223;28;20087;-59
2022/04/02 06:45:25;;;;;;;4.97;2.60;;;3.70;66.80;;;;;;5006468;28;20113;-59
2022/04/02 06:47:51;;;;;;;3.97;2.40;;;3.80;66.80;;;;;;5006282;28;20034;-59
2022/04/02 06:50:16;;;;;;;3.05;2.70;;;3.80;66.80;;;;;;5006636;28;20495;-59
2022/04/02 06:52:44;;;;;;;3.85;2.42;;;3.80;66.80;;;;;;5005523;28;20045;-59
2022/04/02 06:55:11;;;;;;;5.38;2.58;;;3.90;67.00;;;;;;5006987;28;20034;-59
2022/04/02 06:57:45;;;;;;;5.05;2.63;;;3.90;66.90;;;;;;5007718;28;20477;-59
2022/04/02 07:00:12;;;;;;;5.03;2.55;;;3.90;66.90;;;;;;5004459;28;20432;-59
2022/04/02 07:02:38;;;;;;;5.43;3.08;;;4.00;66.80;;;;;;5021439;28;20117;-59
2022/04/02 07:05:05;;;;;;;4.53;2.92;;;4.00;66.70;;;;;;5008114;28;20054;-60
2022/04/02 07:07:31;;;;;;;5.28;2.97;;;4.00;66.70;;;;;;5001932;28;20035;-60
2022/04/02 07:09:57;;;;;;;5.25;2.75;;;4.00;66.80;;;;;;5005560;28;20117;-60
2022/04/02 07:12:22;;;;;;;4.47;3.10;;;4.10;66.70;;;;;;5005561;28;20551;-60
2022/04/02 07:14:48;;;;;;;3.58;2.50;;;4.10;66.70;;;;;;5005950;28;20030;-63
2022/04/02 07:17:14;;;;;;;3.70;2.30;;;4.20;66.80;;;;;;5005949;28;20030;-62
2022/04/02 07:19:41;;;;;;;4.55;2.70;;;4.30;66.80;;;;;;5005507;28;20087;-62
2022/04/02 07:22:11;;;;;;;8.82;2.90;;;4.30;66.60;;;;;;5006950;28;20038;-59
2022/04/02 07:24:40;;;;;;;3.50;2.75;;;4.30;66.70;;;;;;5006499;28;20026;-59
2022/04/02 07:27:07;;;;;;;5.32;2.97;;;4.40;66.80;;;;;;5005965;28;20034;-63
2022/04/02 07:29:34;;;;;;;6.80;2.55;;;4.40;66.70;;;;;;5004686;28;20038;-59
2022/04/02 07:32:00;;;;;;;5.22;2.88;;;4.40;66.80;;;;;;5008821;28;20455;-59
2022/04/02 07:34:26;;;;;;;5.05;2.90;;;4.50;66.90;;;;;;5007489;28;20030;-60
2022/04/02 07:37:08;;;;;;;3.42;2.75;;;4.50;66.70;;;;;;5006555;28;20022;-59
2022/04/02 07:39:43;;;;;;;3.80;2.90;;;4.50;66.60;;;;;;5007651;28;20473;-60
2022/04/02 07:42:23;;;;;;;4.90;2.63;;;4.60;66.50;;;;;;5009432;28;20025;-60
2022/04/02 07:44:58;;;;;;;4.57;2.78;;;4.60;66.50;;;;;;5002956;28;20041;-60
2022/04/02 07:47:28;;;;;;;5.85;2.90;;;4.60;66.40;;;;;;5005122;28;20396;-60
2022/04/02 07:49:59;;;;;;;4.72;2.67;;;4.60;66.50;;;;;;5004021;28;20022;-60
2022/04/02 07:52:27;;;;;;;5.28;2.97;;;4.70;66.60;;;;;;5002608;28;20117;-60
2022/04/02 07:54:57;;;;;;;4.47;2.67;;;4.70;66.50;;;;;;5003668;28;20029;-60
2022/04/02 07:57:27;;;;;;;3.63;2.30;;;4.80;66.50;;;;;;5003070;28;20156;-59
2022/04/02 07:59:59;;;;;;;3.95;2.55;;;4.90;66.40;;;;;;5000489;28;20074;-63
2022/04/02 08:02:38;;;;;;;;;;;4.90;66.40;;;;;;5000888;28;20050;-63
2022/04/02 08:05:10;;;;;;;4.25;2.55;;;4.90;66.30;;;;;;5002083;28;19914;-64
2022/04/02 08:07:43;;;;;;;4.53;2.75;;;4.90;66.20;;;;;;5005257;28;20531;-63
2022/04/02 08:10:13;;;;;;;5.05;3.08;;;5.00;66.20;;;;;;5037918;28;20033;-60
2022/04/02 08:13:07;;;;;;;4.63;2.95;;;5.00;66.20;;;;;;5006247;28;20037;-60
2022/04/02 08:15:33;;;;;;;5.05;3.05;;;5.00;66.20;;;;;;4998875;28;20068;-63
2022/04/02 08:18:06;;;;;;;4.57;2.80;;;5.00;66.10;;;;;;4996569;28;20493;-63
2022/04/02 08:20:38;;;;;;;4.00;2.90;;;5.10;66.20;;;;;;5013734;28;20045;-63
2022/04/02 08:23:07;;;;;;;5.60;3.00;;;5.20;66.20;;;;;;5001137;28;20038;-63
2022/04/02 08:25:38;;;;;;;4.63;3.10;;;5.30;66.00;;;;;;5000601;28;20061;-63
2022/04/02 08:28:09;;;;;;;4.72;2.88;;;5.40;65.90;;;;;;5008935;28;20042;-63
2022/04/02 08:30:58;;;;;;;5.30;2.88;;;5.50;65.80;;;;;;5010643;28;20145;-63
2022/04/02 08:33:45;;;;;;;5.60;3.72;;;5.60;65.70;;;;;;5010132;28;20045;-63
2022/04/02 08:36:42;;;;;;;4.35;3.05;;;5.70;65.30;;;;;;5019219;28;20026;-63
2022/04/02 08:39:23;;;;;;;5.72;3.30;;;5.70;65.10;;;;;;5005651;28;20030;-63
2022/04/02 08:42:00;;;;;;;5.20;3.20;;;5.80;64.90;;;;;;5010036;28;20033;-63
2022/04/02 08:44:45;;;;;;;4.85;3.13;;;5.80;64.80;;;;;;5042148;28;20080;-60
2022/04/02 08:47:46;;;;;;;5.45;3.88;;;5.90;65.00;;;;;;5002950;28;20070;-60
2022/04/02 08:50:14;;;;;;;7.30;3.20;;;6.00;64.50;;;;;;5006289;28;20029;-64
2022/04/02 08:52:51;;;;;;;5.45;3.20;;;6.10;64.60;;;;;;5010126;28;20049;-64
2022/04/02 08:55:28;;;;;;;4.57;3.58;;;6.20;64.50;;;;;;5009872;28;20400;-64
2022/04/02 08:57:54;;;;;;;5.03;3.38;;;6.30;64.20;;;;;;5008830;28;20480;-60
2022/04/02 09:00:24;;;;;;;5.25;3.40;;;6.40;63.80;;;;;;5008428;28;20109;-60
2022/04/02 09:03:16;;;;;;;5.13;3.85;;;6.40;63.20;;;;;;5010279;28;20048;-64
2022/04/02 09:06:03;;;;;;;4.20;2.83;;;6.40;62.70;;;;;;5007650;28;20060;-64
2022/04/02 09:08:51;;;;;;;5.93;3.00;;;6.40;62.30;;;;;;5008332;28;20458;-60
2022/04/02 09:11:25;;;;;;;4.85;2.85;;;6.40;62.40;;;;;;5007693;28;20061;-61
2022/04/02 09:14:48;;;;;;;5.80;3.50;;;6.30;62.50;;;;;;5007747;28;20030;-64
2022/04/02 09:17:42;;;;;;;5.25;3.42;;;6.30;62.50;;;;;;5009633;28;20045;-64
2022/04/02 09:20:46;;;;;;;4.55;2.95;;;6.20;62.80;;;;;;5006845;28;20493;-64
2022/04/02 09:23:50;;;;;;;5.50;3.20;;;6.10;62.70;;;;;;4987789;28;20055;-60
2022/04/02 09:26:35;;;;;;;4.25;2.78;;;6.00;62.70;;;;;;4973920;28;20046;-60
2022/04/02 09:29:50;;;;;;;3.22;2.92;;;5.90;63.00;;;;;;5006228;28;20460;-60
2022/04/02 09:32:43;;;;;;;6.13;3.50;;;5.90;63.10;;;;;;5005262;28;20471;-60
2022/04/02 09:35:26;;;;;;;;;;;5.80;63.40;;;;;;5009779;28;20026;-59
2022/04/02 09:38:29;;;;;;;6.57;3.45;;;5.90;63.50;;;;;;5003913;28;19910;-60
2022/04/02 09:41:03;;;;;;;;;;;5.90;63.70;;;;;;5007381;28;20022;-59
2022/04/02 09:43:33;;;;;;;3.90;3.03;;;6.00;63.70;;;;;;5007528;28;19916;-63
2022/04/02 09:46:25;;;;;;;4.90;2.95;;;6.10;63.10;;;;;;5007598;28;20097;-63
2022/04/02 09:48:59;;;;;;;5.75;2.63;;;6.20;62.60;;;;;;5004693;28;20030;-63
2022/04/02 09:51:35;;;;;;;4.00;2.85;;;6.20;62.40;;;;;;4991059;28;20496;-63
2022/04/02 09:54:18;;;;;;;4.22;2.85;;;6.20;62.00;;;;;;5019214;28;20046;-64
2022/04/02 09:56:50;;;;;;;4.45;3.00;;;6.30;61.70;;;;;;5007315;28;20061;-63
2022/04/02 09:59:36;;;;;;;;;;;6.30;61.30;;;;;;5009796;28;20033;-63
2022/04/02 10:02:04;;;;;;;3.40;2.70;;;6.30;60.90;;;;;;5040209;28;19960;-63
2022/04/02 10:04:53;;;;;;;4.85;2.58;;;6.30;60.70;;;;;;5008122;28;20129;-63
2022/04/02 10:07:54;;;;;;;3.83;2.20;;;6.30;60.10;;;;;;5010539;28;20420;-63
2022/04/02 10:10:26;;;;;;;4.50;2.50;;;6.30;59.70;;;;;;4999675;28;20045;-64
2022/04/02 10:12:54;;;;;;;3.15;2.00;;;6.30;59.40;;;;;;5002030;28;20481;-63
2022/04/02 10:15:22;;;;;;;3.55;2.17;;;6.30;59.40;;;;;;5005268;28;20034;-63
2022/04/02 10:17:53;;;;;;;2.78;2.10;;;6.30;59.20;;;;;;5005952;28;20052;-65
2022/04/02 10:20:21;;;;;;;4.20;2.42;;;6.40;59.10;;;;;;5007340;28;20032;-63
2022/04/02 10:23:01;;;;;;;2.60;1.92;;;6.40;58.40;;;;;;5005029;28;20042;-63
2022/04/02 10:25:32;;;;;;;3.33;2.05;;;6.50;58.90;;;;;;5003713;28;20068;-63
2022/04/02 10:28:01;;;;;;;4.40;2.28;;;6.50;58.30;;;;;;5002210;28;20032;-63
2022/04/02 10:30:28;;;;;;;3.25;2.10;;;6.60;58.30;;;;;;5006747;28;20042;-63
2022/04/02 10:35:50;;;;;;;3.45;1.95;;;6.60;57.20;;;;;;5007288;28;20040;-63
2022/04/02 10:38:33;;;;;;;5.05;2.30;;;6.60;56.60;;;;;;5001114;28;20037;-63
2022/04/02 10:41:01;;;;;;;2.78;1.75;;;6.70;56.40;;;;;;5007495;28;20025;-60
2022/04/02 10:43:35;;;;;;;4.45;2.00;;;6.80;56.20;;;;;;5004267;28;20057;-60
2022/04/02 10:46:03;;;;;;;3.33;1.50;;;6.90;55.80;;;;;;5007941;28;20180;-60
2022/04/02 10:48:59;;;;;;;2.45;1.55;;;6.90;55.00;;;;;;5002764;28;20034;-61
2022/04/02 10:51:29;;;;;;;2.85;1.90;;;6.80;55.00;;;;;;5004250;28;20131;-58
2022/04/02 10:54:07;;;;;;;3.53;1.42;;;6.80;54.80;;;;;;5004980;28;20023;-59
2022/04/02 10:56:45;;;;;;;4.68;2.00;;;6.90;54.90;;;;;;5009995;28;20076;-59
2022/04/02 10:59:13;;;;;;;4.55;1.65;;;7.00;53.70;;;;;;5005236;28;20030;-59
2022/04/02 11:01:44;;;;;;;3.40;1.80;;;7.20;53.60;;;;;;5007096;28;20346;-58
2022/04/02 11:04:32;;;;;;;1.40;1.30;;;7.50;53.20;;;;;;5005338;28;20026;-60
2022/04/02 11:06:58;;;;;;;1.23;1.10;;;7.90;53.40;;;;;;5006105;28;20080;-59
2022/04/02 11:09:39;;;;;;;3.22;1.38;;;8.40;53.10;;;;;;5003669;28;20104;-59
2022/04/02 11:12:17;;;;;;;1.30;1.20;;;8.80;50.60;;;;;;4998972;28;20095;-59
2022/04/02 11:14:45;;;;;;;1.65;1.55;;;9.10;48.90;;;;;;5003773;28;20029;-60
2022/04/02 11:17:32;;;;;;;2.15;1.63;;;9.20;48.10;;;;;;5004013;28;20029;-63
2022/04/02 11:20:08;;;;;;;2.10;1.50;;;9.10;48.80;;;;;;4999318;28;20474;-63
2022/04/02 11:22:49;;;;;;;1.98;1.30;;;9.00;49.80;;;;;;5005762;28;20075;-63
2022/04/02 11:25:31;;;;;;;1.55;1.40;;;8.80;49.90;;;;;;5002277;28;20034;-63
2022/04/02 11:28:11;;;;;;;5.32;1.88;;;8.70;49.90;;;;;;5002212;28;20113;-63
2022/04/02 11:30:40;;;;;;;2.95;1.70;;;8.50;48.50;;;;;;5005298;28;20049;-63
2022/04/02 11:33:13;;;;;;;1.70;1.38;;;8.50;48.60;;;;;;5004315;28;20061;-63
2022/04/02 11:35:47;;;;;;;1.58;1.38;;;8.30;47.40;;;;;;5002826;28;20030;-62
2022/04/02 11:38:18;;;;;;;1.88;1.58;;;8.10;47.80;;;;;;4998161;28;20125;-63
2022/04/02 11:40:54;;;;;;;1.23;1.02;;;8.10;48.30;;;;;;4997039;28;20029;-63
2022/04/02 11:43:34;;;;;;;2.45;1.52;;;8.20;48.20;;;;;;4996271;28;20060;-63
2022/04/02 11:46:01;;;;;;;3.03;1.50;;;8.50;48.00;;;;;;4998604;28;20026;-63
2022/04/02 11:48:37;;;;;;;2.95;1.50;;;8.90;47.70;;;;;;5001740;28;20037;-63
2022/04/02 11:51:18;;;;;;;1.13;1.02;;;9.20;45.80;;;;;;5004319;28;20029;-63
2022/04/02 11:54:03;;;;;;;2.17;1.40;;;9.20;45.70;;;;;;4999806;28;20026;-63
2022/04/02 11:56:32;;;;;;;2.92;1.52;;;9.10;46.20;;;;;;5027934;28;20393;-63
2022/04/02 11:59:08;;;;;;;4.10;1.35;;;8.90;47.00;;;;;;5006587;28;20026;-63
2022/04/02 12:01:42;;;;;;;1.98;1.60;;;8.80;47.80;;;;;;5010626;28;20512;-63
2022/04/02 12:04:18;;;;;;;4.15;1.90;;;8.60;48.80;;;;;;5011386;28;20482;-63
2022/04/02 12:06:47;;;;;;;3.20;1.70;;;8.60;48.90;;;;;;4998575;28;20065;-59
2022/04/02 12:09:14;;;;;;;2.38;1.33;;;8.60;49.60;;;;;;4999962;28;20060;-59
2022/04/02 12:11:51;;;;;;;3.75;2.00;;;8.90;49.60;;;;;;5010151;28;20034;-62
2022/04/02 12:14:27;;;;;;;2.72;1.60;;;9.10;48.80;;;;;;5008468;28;20411;-63
2022/04/02 12:17:01;;;;;;;2.67;1.83;;;9.30;48.90;;;;;;5006683;28;20029;-63
2022/04/02 12:19:37;;;;;;;4.05;1.95;;;9.30;48.30;;;;;;5005435;28;20033;-63
2022/04/02 12:22:04;;;;;;;2.58;1.80;;;9.20;48.80;;;;;;5005425;28;20061;-63
2022/04/02 12:24:39;;;;;;;2.58;1.52;;;9.00;48.70;;;;;;5007771;28;20087;-63
2022/04/02 12:27:08;;;;;;;5.20;1.90;;;8.70;49.40;;;;;;5008911;28;20038;-59
2022/04/02 12:29:35;;;;;;;3.58;1.70;;;8.60;50.00;;;;;;5002928;28;20500;-59
2022/04/02 12:32:02;;;;;;;3.15;1.70;;;8.40;50.70;;;;;;5009461;28;20038;-63
2022/04/02 12:34:30;;;;;;;2.60;1.52;;;8.30;51.30;;;;;;5003817;28;20017;-59
2022/04/02 12:37:03;;;;;;;5.80;3.10;;;8.20;51.30;;;;;;5007848;28;20109;-59
2022/04/02 12:39:28;;;;;;;3.65;1.77;;;8.20;51.80;;;;;;5006214;28;20029;-63
2022/04/02 12:41:54;;;;;;;2.25;1.38;;;8.10;52.30;;;;;;5008376;28;20080;-63
2022/04/02 12:44:22;;;;;;;3.50;1.60;;;8.00;52.50;;;;;;5005279;28;20113;-63
2022/04/02 12:46:49;;;;;;;3.28;1.65;;;8.00;52.30;;;;;;5004922;28;21338;-63
2022/04/02 12:49:32;;;;;;;2.53;1.80;;;7.90;52.50;;;;;;5006075;28;20061;-63
2022/04/02 12:52:10;;;;;;;3.63;1.45;;;8.00;53.40;;;;;;5014240;28;20549;-63
2022/04/02 12:54:36;;;;;;;3.92;1.67;;;8.30;53.60;;;;;;5010312;28;20030;-63
2022/04/02 12:57:15;;;;;;;2.58;1.55;;;8.60;53.10;;;;;;5011708;28;20040;-63
2022/04/02 12:59:50;;;;;;;1.60;1.27;;;9.00;52.10;;;;;;5008155;28;20072;-59
2022/04/02 13:02:22;;;;;;;1.30;1.15;;;9.30;50.60;;;;;;5012859;28;20393;-60
2022/04/02 13:04:57;;;;;;;2.67;1.60;;;9.60;50.20;;;;;;5005785;28;20048;-62
2022/04/02 13:07:23;;;;;;;4.55;1.48;;;9.90;49.50;;;;;;5016837;28;20034;-62
2022/04/02 13:09:52;;;;;;;2.22;1.48;;;10.10;48.80;;;;;;5008491;28;20470;-59
2022/04/02 13:12:21;;;;;;;1.73;1.42;;;10.30;48.20;;;;;;5006455;28;20034;-59
2022/04/02 13:15:00;;;;;;;2.72;1.48;;;10.50;47.30;;;;;;5012492;28;20499;-59
2022/04/02 13:20:28;;;;;;;2.35;1.40;;;10.60;47.40;;;;;;5007691;28;20030;-59
2022/04/02 13:20:35;;;;;;;2.03;1.50;;;10.80;46.90;;;;;;5008569;28;20428;-59
2022/04/02 13:23:02;;;;;;;2.70;1.65;;;11.00;46.60;;;;;;5005452;28;20031;-60